sensor_id;sensor_type;location;lat;lon;timestamp;pressure;altitude;pressure_sealevel;temperature;humidity
23733;BME280;12047;53.450;-2.286;2023-02-28T00:03:18;103268.28;;;13.41;100.00
23733;BME280;12047;53.450;-2.286;2023-02-28T00:08:24;103282.09;;;13.62;100.00
23733;BME280;12047;53.450;-2.286;2023-02-28T00:13:42;103283.28;;;12.84;100.00
23733;BME280;12047;53.450;-2.286;2023-02-28T00:18:57;103288.97;;;13.52;100.00
23733;BME280;12047;53.450;-2.286;2023-02-28T00:24:20;103283.72;;;13.79;100.00
23733;BME280;12047;53.450;-2.286;2023-02-28T00:29:36;103284.41;;;13.54;100.00
23733;BME280;12047;53.450;-2.286;2023-02-28T00:34:59;103289.91;;;13.79;100.00
23733;BME280;12047;53.450;-2.286;2023-02-28T00:40:24;103280.38;;;13.61;100.00
23733;BME280;12047;53.450;-2.286;2023-02-28T00:45:31;103296.00;;;13.67;100.00
23733;BME280;12047;53.450;-2.286;2023-02-28T00:56:38;103292.84;;;13.75;100.00
23733;BME280;12047;53.450;-2.286;2023-02-28T01:01:56;103291.00;;;13.18;100.00
23733;BME280;12047;53.450;-2.286;2023-02-28T01:07:02;103281.75;;;13.10;100.00
23733;BME280;12047;53.450;-2.286;2023-02-28T01:12:09;103292.66;;;13.49;100.00
23733;BME280;12047;53.450;-2.286;2023-02-28T01:17:18;103288.94;;;13.38;100.00
23733;BME280;12047;53.450;-2.286;2023-02-28T01:28:42;103295.78;;;12.98;100.00
23733;BME280;12047;53.450;-2.286;2023-02-28T01:34:15;103305.59;;;13.70;100.00
23733;BME280;12047;53.450;-2.286;2023-02-28T01:39:31;103301.19;;;13.26;100.00
23733;BME280;12047;53.450;-2.286;2023-02-28T01:51:04;103310.00;;;13.85;100.00
23733;BME280;12047;53.450;-2.286;2023-02-28T01:56:30;103309.78;;;13.31;100.00
23733;BME280;12047;53.450;-2.286;2023-02-28T02:01:53;103311.41;;;13.62;100.00
23733;BME280;12047;53.450;-2.286;2023-02-28T02:07:06;103296.91;;;14.09;100.00
23733;BME280;12047;53.450;-2.286;2023-02-28T02:35:24;103304.34;;;14.04;100.00
23733;BME280;12047;53.450;-2.286;2023-02-28T02:40:40;103295.59;;;14.02;100.00
23733;BME280;12047;53.450;-2.286;2023-02-28T02:46:05;103298.94;;;13.91;100.00
23733;BME280;12047;53.450;-2.286;2023-02-28T02:51:10;103293.03;;;14.00;100.00
23733;BME280;12047;53.450;-2.286;2023-02-28T02:56:39;103300.66;;;13.63;100.00
23733;BME280;12047;53.450;-2.286;2023-02-28T03:01:44;103294.69;;;14.15;100.00
23733;BME280;12047;53.450;-2.286;2023-02-28T03:06:45;103296.84;;;13.68;100.00
23733;BME280;12047;53.450;-2.286;2023-02-28T03:11:46;103305.31;;;13.88;100.00
23733;BME280;12047;53.450;-2.286;2023-02-28T03:33:18;103293.81;;;14.29;100.00
23733;BME280;12047;53.450;-2.286;2023-02-28T03:38:34;103304.84;;;13.82;100.00
23733;BME280;12047;53.450;-2.286;2023-02-28T03:43:45;103299.50;;;13.96;100.00
23733;BME280;12047;53.450;-2.286;2023-02-28T03:48:53;103301.22;;;13.97;100.00
23733;BME280;12047;53.450;-2.286;2023-02-28T03:54:05;103307.22;;;13.72;100.00
23733;BME280;12047;53.450;-2.286;2023-02-28T03:59:14;103296.53;;;13.86;100.00
23733;BME280;12047;53.450;-2.286;2023-02-28T04:04:18;103293.72;;;13.75;100.00
23733;BME280;12047;53.450;-2.286;2023-02-28T04:09:19;103294.19;;;13.82;100.00
23733;BME280;12047;53.450;-2.286;2023-02-28T04:14:19;103290.56;;;13.83;100.00
23733;BME280;12047;53.450;-2.286;2023-02-28T04:19:24;103291.13;;;14.02;100.00
23733;BME280;12047;53.450;-2.286;2023-02-28T04:24:26;103300.56;;;13.79;100.00
23733;BME280;12047;53.450;-2.286;2023-02-28T04:29:34;103291.41;;;13.98;100.00
23733;BME280;12047;53.450;-2.286;2023-02-28T04:34:34;103286.72;;;14.01;100.00
23733;BME280;12047;53.450;-2.286;2023-02-28T04:39:36;103301.53;;;13.78;100.00
23733;BME280;12047;53.450;-2.286;2023-02-28T04:44:37;103303.13;;;13.81;100.00
23733;BME280;12047;53.450;-2.286;2023-02-28T04:49:38;103288.94;;;13.66;100.00
23733;BME280;12047;53.450;-2.286;2023-02-28T04:54:41;103295.41;;;13.34;100.00
23733;BME280;12047;53.450;-2.286;2023-02-28T04:59:42;103296.28;;;13.62;100.00
23733;BME280;12047;53.450;-2.286;2023-02-28T05:04:43;103308.81;;;13.89;100.00
23733;BME280;12047;53.450;-2.286;2023-02-28T05:09:46;103309.31;;;13.53;100.00
23733;BME280;12047;53.450;-2.286;2023-02-28T05:14:57;103315.59;;;13.80;100.00
23733;BME280;12047;53.450;-2.286;2023-02-28T05:19:58;103314.53;;;13.40;100.00
23733;BME280;12047;53.450;-2.286;2023-02-28T05:24:58;103314.66;;;13.09;100.00
23733;BME280;12047;53.450;-2.286;2023-02-28T05:29:59;103312.53;;;13.30;100.00
23733;BME280;12047;53.450;-2.286;2023-02-28T05:35:03;103314.06;;;12.58;100.00
23733;BME280;12047;53.450;-2.286;2023-02-28T05:40:05;103310.81;;;13.13;100.00
23733;BME280;12047;53.450;-2.286;2023-02-28T05:45:32;103305.19;;;13.19;100.00
23733;BME280;12047;53.450;-2.286;2023-02-28T05:50:32;103309.19;;;12.50;100.00
23733;BME280;12047;53.450;-2.286;2023-02-28T05:55:33;103318.97;;;12.18;100.00
23733;BME280;12047;53.450;-2.286;2023-02-28T06:00:36;103314.22;;;13.01;100.00
23733;BME280;12047;53.450;-2.286;2023-02-28T06:05:36;103318.25;;;12.78;100.00
23733;BME280;12047;53.450;-2.286;2023-02-28T06:10:41;103319.75;;;13.12;100.00
23733;BME280;12047;53.450;-2.286;2023-02-28T06:15:42;103333.63;;;12.10;100.00
23733;BME280;12047;53.450;-2.286;2023-02-28T06:20:43;103334.75;;;12.53;100.00
23733;BME280;12047;53.450;-2.286;2023-02-28T06:25:56;103321.38;;;13.30;100.00
23733;BME280;12047;53.450;-2.286;2023-02-28T06:31:07;103336.03;;;12.62;100.00
23733;BME280;12047;53.450;-2.286;2023-02-28T06:36:09;103336.31;;;12.87;100.00
23733;BME280;12047;53.450;-2.286;2023-02-28T06:41:12;103340.22;;;12.81;100.00
23733;BME280;12047;53.450;-2.286;2023-02-28T06:46:13;103347.34;;;12.81;100.00
23733;BME280;12047;53.450;-2.286;2023-02-28T06:51:17;103345.56;;;12.50;100.00
23733;BME280;12047;53.450;-2.286;2023-02-28T06:56:19;103350.94;;;12.80;100.00
23733;BME280;12047;53.450;-2.286;2023-02-28T07:01:20;103367.09;;;12.30;100.00
23733;BME280;12047;53.450;-2.286;2023-02-28T07:06:24;103365.75;;;13.00;100.00
23733;BME280;12047;53.450;-2.286;2023-02-28T07:11:26;103366.91;;;12.64;100.00
23733;BME280;12047;53.450;-2.286;2023-02-28T07:16:29;103372.34;;;13.08;100.00
23733;BME280;12047;53.450;-2.286;2023-02-28T07:21:30;103370.59;;;12.77;100.00
23733;BME280;12047;53.450;-2.286;2023-02-28T07:26:31;103375.56;;;12.68;100.00
23733;BME280;12047;53.450;-2.286;2023-02-28T07:31:34;103374.81;;;12.50;100.00
23733;BME280;12047;53.450;-2.286;2023-02-28T07:36:35;103377.63;;;12.78;100.00
23733;BME280;12047;53.450;-2.286;2023-02-28T07:41:35;103374.13;;;12.78;100.00
23733;BME280;12047;53.450;-2.286;2023-02-28T07:46:43;103385.09;;;12.40;100.00
23733;BME280;12047;53.450;-2.286;2023-02-28T07:51:43;103390.09;;;12.46;100.00
23733;BME280;12047;53.450;-2.286;2023-02-28T07:56:44;103383.38;;;12.39;100.00
23733;BME280;12047;53.450;-2.286;2023-02-28T08:01:44;103388.19;;;12.64;100.00
23733;BME280;12047;53.450;-2.286;2023-02-28T08:06:45;103382.34;;;12.73;100.00
23733;BME280;12047;53.450;-2.286;2023-02-28T08:11:46;103390.41;;;12.24;100.00
23733;BME280;12047;53.450;-2.286;2023-02-28T08:16:47;103386.97;;;12.38;100.00
23733;BME280;12047;53.450;-2.286;2023-02-28T08:21:47;103386.03;;;12.23;100.00
23733;BME280;12047;53.450;-2.286;2023-02-28T08:26:48;103382.16;;;12.92;100.00
23733;BME280;12047;53.450;-2.286;2023-02-28T08:31:48;103387.88;;;13.32;100.00
23733;BME280;12047;53.450;-2.286;2023-02-28T08:36:49;103387.13;;;13.44;100.00
23733;BME280;12047;53.450;-2.286;2023-02-28T08:41:50;103390.22;;;13.94;100.00
23733;BME280;12047;53.450;-2.286;2023-02-28T08:46:52;103388.41;;;14.52;100.00
23733;BME280;12047;53.450;-2.286;2023-02-28T08:51:53;103386.53;;;13.83;100.00
23733;BME280;12047;53.450;-2.286;2023-02-28T08:56:55;103382.88;;;13.55;100.00
23733;BME280;12047;53.450;-2.286;2023-02-28T09:01:55;103393.34;;;12.67;100.00
23733;BME280;12047;53.450;-2.286;2023-02-28T09:06:56;103392.81;;;12.92;100.00
23733;BME280;12047;53.450;-2.286;2023-02-28T09:11:57;103396.38;;;13.22;100.00
23733;BME280;12047;53.450;-2.286;2023-02-28T09:16:58;103390.34;;;13.35;100.00
23733;BME280;12047;53.450;-2.286;2023-02-28T09:22:28;103380.88;;;13.73;100.00
23733;BME280;12047;53.450;-2.286;2023-02-28T09:27:48;103397.41;;;13.20;100.00
23733;BME280;12047;53.450;-2.286;2023-02-28T09:32:49;103395.53;;;13.06;100.00
23733;BME280;12047;53.450;-2.286;2023-02-28T09:37:54;103392.78;;;13.23;100.00
23733;BME280;12047;53.450;-2.286;2023-02-28T09:42:59;103399.63;;;13.27;100.00
23733;BME280;12047;53.450;-2.286;2023-02-28T09:48:04;103396.88;;;14.30;100.00
23733;BME280;12047;53.450;-2.286;2023-02-28T09:53:33;103400.03;;;13.80;100.00
23733;BME280;12047;53.450;-2.286;2023-02-28T10:03:56;103415.66;;;14.28;100.00
23733;BME280;12047;53.450;-2.286;2023-02-28T10:09:20;103407.47;;;14.17;100.00
23733;BME280;12047;53.450;-2.286;2023-02-28T10:14:28;103423.56;;;14.16;100.00
23733;BME280;12047;53.450;-2.286;2023-02-28T10:19:38;103418.88;;;13.91;100.00
23733;BME280;12047;53.450;-2.286;2023-02-28T10:24:55;103418.13;;;14.17;100.00
23733;BME280;12047;53.450;-2.286;2023-02-28T10:30:03;103410.97;;;14.18;100.00
23733;BME280;12047;53.450;-2.286;2023-02-28T10:35:17;103409.59;;;14.82;100.00
23733;BME280;12047;53.450;-2.286;2023-02-28T10:45:18;103413.66;;;14.32;97.13
23733;BME280;12047;53.450;-2.286;2023-02-28T10:50:44;103407.13;;;14.64;96.95
23733;BME280;12047;53.450;-2.286;2023-02-28T10:55:45;103407.72;;;14.96;96.46
23733;BME280;12047;53.450;-2.286;2023-02-28T11:00:45;103407.75;;;14.55;95.93
23733;BME280;12047;53.450;-2.286;2023-02-28T11:05:47;103403.84;;;13.76;99.42
23733;BME280;12047;53.450;-2.286;2023-02-28T11:10:55;103408.66;;;13.55;98.68
23733;BME280;12047;53.450;-2.286;2023-02-28T11:15:59;103394.72;;;14.78;95.16
23733;BME280;12047;53.450;-2.286;2023-02-28T11:21:01;103398.59;;;14.45;94.84
23733;BME280;12047;53.450;-2.286;2023-02-28T11:26:04;103389.94;;;14.27;93.51
23733;BME280;12047;53.450;-2.286;2023-02-28T11:31:25;103387.50;;;14.66;93.67
23733;BME280;12047;53.450;-2.286;2023-02-28T11:36:30;103382.81;;;14.69;92.57
23733;BME280;12047;53.450;-2.286;2023-02-28T11:46:50;103373.72;;;14.59;90.68
23733;BME280;12047;53.450;-2.286;2023-02-28T11:52:27;103376.69;;;14.12;93.07
23733;BME280;12047;53.450;-2.286;2023-02-28T12:03:23;103370.72;;;14.90;94.26
23733;BME280;12047;53.450;-2.286;2023-02-28T12:08:45;103354.69;;;14.78;94.23
23733;BME280;12047;53.450;-2.286;2023-02-28T12:14:10;103353.44;;;14.42;97.21
23733;BME280;12047;53.450;-2.286;2023-02-28T12:19:21;103345.97;;;14.06;97.96
23733;BME280;12047;53.450;-2.286;2023-02-28T12:34:50;103323.47;;;15.05;100.00
23733;BME280;12047;53.450;-2.286;2023-02-28T12:40:00;103322.72;;;15.16;96.13
23733;BME280;12047;53.450;-2.286;2023-02-28T12:45:11;103323.50;;;14.10;99.04
23733;BME280;12047;53.450;-2.286;2023-02-28T12:50:14;103306.50;;;15.06;96.85
23733;BME280;12047;53.450;-2.286;2023-02-28T13:01:02;103303.97;;;14.51;99.05
23733;BME280;12047;53.450;-2.286;2023-02-28T13:06:28;103294.50;;;14.18;100.00
23733;BME280;12047;53.450;-2.286;2023-02-28T13:11:39;103292.44;;;14.09;100.00
23733;BME280;12047;53.450;-2.286;2023-02-28T13:16:57;103283.22;;;15.08;99.25
23733;BME280;12047;53.450;-2.286;2023-02-28T13:21:59;103285.94;;;14.13;99.92
23733;BME280;12047;53.450;-2.286;2023-02-28T13:47:52;103252.38;;;14.77;99.44
23733;BME280;12047;53.450;-2.286;2023-02-28T13:58:21;103259.84;;;14.72;100.00
23733;BME280;12047;53.450;-2.286;2023-02-28T14:13:53;103260.69;;;13.78;100.00
23733;BME280;12047;53.450;-2.286;2023-02-28T14:19:20;103255.53;;;13.75;100.00
23733;BME280;12047;53.450;-2.286;2023-02-28T14:40:34;103231.22;;;13.93;100.00
23733;BME280;12047;53.450;-2.286;2023-02-28T14:45:35;103228.22;;;14.39;99.74
23733;BME280;12047;53.450;-2.286;2023-02-28T14:50:37;103238.06;;;13.56;100.00
23733;BME280;12047;53.450;-2.286;2023-02-28T14:55:44;103239.66;;;13.16;100.00
23733;BME280;12047;53.450;-2.286;2023-02-28T15:00:52;103233.19;;;12.76;100.00
23733;BME280;12047;53.450;-2.286;2023-02-28T15:06:01;103229.91;;;14.01;100.00
23733;BME280;12047;53.450;-2.286;2023-02-28T15:11:18;103233.84;;;13.67;100.00
23733;BME280;12047;53.450;-2.286;2023-02-28T15:16:40;103225.09;;;13.65;100.00
23733;BME280;12047;53.450;-2.286;2023-02-28T15:21:44;103223.50;;;14.03;100.00
23733;BME280;12047;53.450;-2.286;2023-02-28T15:26:48;103214.91;;;13.71;100.00
23733;BME280;12047;53.450;-2.286;2023-02-28T15:31:56;103216.06;;;13.39;100.00
23733;BME280;12047;53.450;-2.286;2023-02-28T15:36:57;103227.28;;;14.40;99.90
23733;BME280;12047;53.450;-2.286;2023-02-28T15:42:19;103228.94;;;13.32;100.00
23733;BME280;12047;53.450;-2.286;2023-02-28T15:47:26;103221.44;;;13.94;100.00
23733;BME280;12047;53.450;-2.286;2023-02-28T15:57:39;103220.22;;;14.53;99.35
23733;BME280;12047;53.450;-2.286;2023-02-28T16:02:40;103224.13;;;13.66;100.00
23733;BME280;12047;53.450;-2.286;2023-02-28T16:07:42;103217.34;;;14.15;99.99
23733;BME280;12047;53.450;-2.286;2023-02-28T16:12:43;103223.44;;;13.90;100.00
23733;BME280;12047;53.450;-2.286;2023-02-28T16:17:44;103219.50;;;14.10;100.00
23733;BME280;12047;53.450;-2.286;2023-02-28T16:22:46;103223.91;;;13.97;100.00
23733;BME280;12047;53.450;-2.286;2023-02-28T16:28:21;103220.16;;;14.41;100.00
23733;BME280;12047;53.450;-2.286;2023-02-28T16:33:46;103221.19;;;14.38;100.00
23733;BME280;12047;53.450;-2.286;2023-02-28T16:38:54;103222.47;;;13.91;100.00
23733;BME280;12047;53.450;-2.286;2023-02-28T16:43:58;103215.88;;;13.42;100.00
23733;BME280;12047;53.450;-2.286;2023-02-28T16:49:00;103231.50;;;13.34;100.00
23733;BME280;12047;53.450;-2.286;2023-02-28T16:54:01;103219.88;;;13.49;100.00
23733;BME280;12047;53.450;-2.286;2023-02-28T16:59:03;103230.75;;;14.01;100.00
23733;BME280;12047;53.450;-2.286;2023-02-28T17:04:04;103226.25;;;13.60;100.00
23733;BME280;12047;53.450;-2.286;2023-02-28T17:09:04;103226.56;;;13.97;100.00
23733;BME280;12047;53.450;-2.286;2023-02-28T17:14:06;103219.31;;;13.99;100.00
23733;BME280;12047;53.450;-2.286;2023-02-28T17:19:10;103231.94;;;13.69;100.00
23733;BME280;12047;53.450;-2.286;2023-02-28T17:24:12;103232.03;;;13.67;100.00
23733;BME280;12047;53.450;-2.286;2023-02-28T17:29:20;103223.69;;;14.00;100.00
23733;BME280;12047;53.450;-2.286;2023-02-28T17:34:21;103236.63;;;13.22;100.00
23733;BME280;12047;53.450;-2.286;2023-02-28T17:39:23;103235.97;;;13.47;100.00
23733;BME280;12047;53.450;-2.286;2023-02-28T17:44:24;103246.81;;;13.58;100.00
23733;BME280;12047;53.450;-2.286;2023-02-28T17:49:25;103240.38;;;14.30;100.00
23733;BME280;12047;53.450;-2.286;2023-02-28T17:54:26;103249.88;;;13.93;100.00
23733;BME280;12047;53.450;-2.286;2023-02-28T17:59:26;103265.41;;;13.87;100.00
23733;BME280;12047;53.450;-2.286;2023-02-28T18:04:33;103258.38;;;14.00;100.00
23733;BME280;12047;53.450;-2.286;2023-02-28T18:09:34;103257.94;;;13.51;100.00
23733;BME280;12047;53.450;-2.286;2023-02-28T18:14:34;103257.28;;;13.33;100.00
23733;BME280;12047;53.450;-2.286;2023-02-28T18:19:35;103260.88;;;13.32;100.00
23733;BME280;12047;53.450;-2.286;2023-02-28T18:24:36;103275.91;;;13.76;100.00
23733;BME280;12047;53.450;-2.286;2023-02-28T18:29:36;103270.34;;;13.08;100.00
23733;BME280;12047;53.450;-2.286;2023-02-28T18:34:37;103273.91;;;13.51;100.00
23733;BME280;12047;53.450;-2.286;2023-02-28T18:39:38;103278.59;;;13.03;100.00
23733;BME280;12047;53.450;-2.286;2023-02-28T18:44:38;103280.44;;;14.02;100.00
23733;BME280;12047;53.450;-2.286;2023-02-28T18:49:39;103271.75;;;13.57;100.00
23733;BME280;12047;53.450;-2.286;2023-02-28T18:54:40;103276.19;;;12.99;100.00
23733;BME280;12047;53.450;-2.286;2023-02-28T18:59:40;103286.25;;;13.23;100.00
23733;BME280;12047;53.450;-2.286;2023-02-28T19:04:41;103273.66;;;13.55;100.00
23733;BME280;12047;53.450;-2.286;2023-02-28T19:09:41;103278.28;;;12.93;100.00
23733;BME280;12047;53.450;-2.286;2023-02-28T19:14:42;103290.00;;;12.75;100.00
23733;BME280;12047;53.450;-2.286;2023-02-28T19:19:42;103280.00;;;12.49;100.00
23733;BME280;12047;53.450;-2.286;2023-02-28T19:24:43;103280.59;;;13.14;100.00
23733;BME280;12047;53.450;-2.286;2023-02-28T19:29:47;103285.81;;;13.45;100.00
23733;BME280;12047;53.450;-2.286;2023-02-28T19:34:48;103297.91;;;12.77;100.00
23733;BME280;12047;53.450;-2.286;2023-02-28T19:39:49;103303.63;;;13.59;100.00
23733;BME280;12047;53.450;-2.286;2023-02-28T19:44:49;103288.84;;;13.39;100.00
23733;BME280;12047;53.450;-2.286;2023-02-28T19:49:50;103289.88;;;13.93;100.00
23733;BME280;12047;53.450;-2.286;2023-02-28T19:54:53;103293.44;;;13.07;100.00
23733;BME280;12047;53.450;-2.286;2023-02-28T19:59:54;103287.06;;;14.23;100.00
23733;BME280;12047;53.450;-2.286;2023-02-28T20:04:55;103284.63;;;14.06;100.00
23733;BME280;12047;53.450;-2.286;2023-02-28T20:09:57;103283.09;;;12.87;100.00
23733;BME280;12047;53.450;-2.286;2023-02-28T20:14:57;103274.63;;;12.80;100.00
23733;BME280;12047;53.450;-2.286;2023-02-28T20:20:02;103276.38;;;11.71;100.00
23733;BME280;12047;53.450;-2.286;2023-02-28T20:25:04;103277.13;;;12.68;100.00
23733;BME280;12047;53.450;-2.286;2023-02-28T20:30:05;103281.53;;;13.28;100.00
23733;BME280;12047;53.450;-2.286;2023-02-28T20:35:06;103279.91;;;13.40;100.00
23733;BME280;12047;53.450;-2.286;2023-02-28T20:40:11;103276.66;;;13.92;100.00
23733;BME280;12047;53.450;-2.286;2023-02-28T20:45:17;103287.44;;;12.12;100.00
23733;BME280;12047;53.450;-2.286;2023-02-28T20:50:18;103291.84;;;12.43;100.00
23733;BME280;12047;53.450;-2.286;2023-02-28T20:55:19;103288.75;;;12.51;100.00
23733;BME280;12047;53.450;-2.286;2023-02-28T21:05:51;103303.19;;;12.15;100.00
23733;BME280;12047;53.450;-2.286;2023-02-28T21:10:51;103295.50;;;13.32;100.00
23733;BME280;12047;53.450;-2.286;2023-02-28T21:15:52;103294.94;;;13.41;100.00
23733;BME280;12047;53.450;-2.286;2023-02-28T21:20:59;103304.75;;;12.81;100.00
23733;BME280;12047;53.450;-2.286;2023-02-28T21:26:04;103307.38;;;12.19;100.00
23733;BME280;12047;53.450;-2.286;2023-02-28T21:31:07;103295.69;;;12.99;100.00
23733;BME280;12047;53.450;-2.286;2023-02-28T21:36:17;103308.06;;;12.39;100.00
23733;BME280;12047;53.450;-2.286;2023-02-28T21:41:19;103314.75;;;12.46;100.00
23733;BME280;12047;53.450;-2.286;2023-02-28T21:46:24;103321.50;;;12.67;100.00
23733;BME280;12047;53.450;-2.286;2023-02-28T21:51:29;103330.50;;;13.40;100.00
23733;BME280;12047;53.450;-2.286;2023-02-28T21:56:33;103342.94;;;13.84;100.00
23733;BME280;12047;53.450;-2.286;2023-02-28T22:01:37;103339.72;;;12.27;100.00
23733;BME280;12047;53.450;-2.286;2023-02-28T22:06:39;103332.13;;;13.13;100.00
23733;BME280;12047;53.450;-2.286;2023-02-28T22:11:40;103336.06;;;12.91;100.00
23733;BME280;12047;53.450;-2.286;2023-02-28T22:16:41;103340.19;;;13.27;100.00
23733;BME280;12047;53.450;-2.286;2023-02-28T22:21:41;103327.66;;;13.13;100.00
23733;BME280;12047;53.450;-2.286;2023-02-28T22:26:42;103319.19;;;13.07;100.00
23733;BME280;12047;53.450;-2.286;2023-02-28T22:31:42;103333.34;;;12.14;100.00
23733;BME280;12047;53.450;-2.286;2023-02-28T22:36:43;103325.56;;;12.58;100.00
23733;BME280;12047;53.450;-2.286;2023-02-28T22:41:43;103321.75;;;12.78;100.00
23733;BME280;12047;53.450;-2.286;2023-02-28T22:46:44;103330.19;;;12.55;100.00
23733;BME280;12047;53.450;-2.286;2023-02-28T22:51:45;103320.94;;;12.92;100.00
23733;BME280;12047;53.450;-2.286;2023-02-28T22:56:46;103315.69;;;12.90;100.00
23733;BME280;12047;53.450;-2.286;2023-02-28T23:01:46;103315.47;;;12.34;100.00
23733;BME280;12047;53.450;-2.286;2023-02-28T23:06:47;103319.16;;;12.31;100.00
23733;BME280;12047;53.450;-2.286;2023-02-28T23:11:49;103311.59;;;11.75;100.00
23733;BME280;12047;53.450;-2.286;2023-02-28T23:16:53;103304.47;;;11.59;100.00
23733;BME280;12047;53.450;-2.286;2023-02-28T23:21:55;103312.88;;;12.32;100.00
23733;BME280;12047;53.450;-2.286;2023-02-28T23:27:00;103320.94;;;12.46;100.00
23733;BME280;12047;53.450;-2.286;2023-02-28T23:32:02;103320.81;;;12.64;100.00
23733;BME280;12047;53.450;-2.286;2023-02-28T23:37:02;103320.50;;;12.54;100.00
23733;BME280;12047;53.450;-2.286;2023-02-28T23:42:03;103325.31;;;12.47;100.00
23733;BME280;12047;53.450;-2.286;2023-02-28T23:47:03;103320.09;;;12.30;100.00
23733;BME280;12047;53.450;-2.286;2023-02-28T23:52:04;103330.53;;;12.49;100.00
23733;BME280;12047;53.450;-2.286;2023-02-28T23:57:05;103329.59;;;12.50;100.00
